Airfield :
LOGIN :

Register | Disclaimer

   EN    FR    IT 

 










Legend :    VFR   Marginal VFR   IFR   Intensive IFR   Very Intensive IFR
Visi :
Ceiling :
>= 8 km
>= 3000ft
5 to 8 km
1000 to 3000 ft
1500m to 5 km
500 to 1000 ft
800 to 1500m
200 to 500 ft
< 800m
< 200 ft
Symbols :   Thunderstorms  Fog  Heavy snow  Heavy precipitations  Wind > 20 kt
SIGMETs :     Misc.  Thunderstorms  Icing  Turbulence  Mountain Waves  Volcanic Ashes






- Airport Elevation : 82 ft
- IATA code : ALG


DAAG - Alger Houari Boumedienne

CURRENT METAR :
  • 090300Z 18015KT CAVOK 27/10 Q1009

EXPIRED METARs :
  • 090230Z 18014KT CAVOK 27/10 Q1010
  • 090200Z 18014KT CAVOK 27/10 Q1010
  • 090130Z 18011G21KT 150V210 CAVOK 27/10 Q1010
  • 090100Z 18006KT 120V200 CAVOK 27/09 Q1010
  • 090030Z 15005KT 090V200 CAVOK 28/09 Q1011

TAF TAF DAAG
Valid from the 09 at 00:00 until the 10 at 00:00 UTC


082300Z 0900/0924 16010KT CAVOK
PROB30
TEMPO 0908/0912 FEW026TCU
BECMG 0918/0920 VRB02KT



MET'MAP, your aeronautical weather chart ! - Copyright ORBIFLY December 2007 - Disclaimer

ORBIFLY MET'MAP TEAM :

Programming & Development : Alexandra Zaïnal
Concept & original design : Baudouin d'Aumeries
Assistance for programming : Marc-Olivier Méhu
Technical & hardware support : Manuel Goepfert

Contact : metmap@orbifly.com




SOURCES & CREDITS :

   NOAA